Time;durP1;ratioP1;P1;durP2;ratioP2;P2;SDS_P1;SDS_P2;PMS_P1;PMS_P2;Temp;Humidity;BMP_temperature;BMP_pressure;BME280_temperature;BME280_humidity;BME280_pressure;Samples;Min_cycle;Max_cycle;Signal;HPM_P1;HPM_P2
2023/12/06 00:00:22;;;;;;;4.60;1.98;;;4.80;85.80;;;;;;5050457;28;20203;-76
2023/12/06 00:02:50;;;;;;;3.40;1.60;;;4.80;85.70;;;;;;5048661;28;20196;-76
2023/12/06 00:05:20;;;;;;;3.67;1.65;;;4.80;85.80;;;;;;5051622;28;20286;-76
2023/12/06 00:07:48;;;;;;;3.67;1.65;;;4.80;85.80;;;;;;5042151;28;20227;-76
2023/12/06 00:10:16;;;;;;;3.40;1.40;;;4.80;85.70;;;;;;5054260;28;20197;-76
2023/12/06 00:12:44;;;;;;;3.50;1.50;;;4.80;85.80;;;;;;5051060;28;20206;-76
2023/12/06 00:15:12;;;;;;;3.60;1.63;;;4.80;85.80;;;;;;5057052;28;20220;-76
2023/12/06 00:17:40;;;;;;;3.83;1.90;;;4.80;85.80;;;;;;5053837;28;20196;-77
2023/12/06 00:20:09;;;;;;;3.60;1.80;;;4.80;85.80;;;;;;5049858;28;20567;-76
2023/12/06 00:22:39;;;;;;;3.80;1.80;;;4.80;85.80;;;;;;5050450;28;20201;-77
2023/12/06 00:25:08;;;;;;;3.28;1.30;;;4.70;85.80;;;;;;5049542;28;21007;-76
2023/12/06 00:27:36;;;;;;;4.00;1.90;;;4.80;85.80;;;;;;5054668;28;20196;-76
2023/12/06 00:30:05;;;;;;;4.57;1.95;;;4.80;85.70;;;;;;5049871;28;20241;-76
2023/12/06 00:32:33;;;;;;;4.07;2.00;;;4.70;85.70;;;;;;5049224;28;20557;-75
2023/12/06 00:35:01;;;;;;;3.50;1.70;;;4.70;85.80;;;;;;5050771;28;20316;-75
2023/12/06 00:37:29;;;;;;;3.50;1.65;;;4.70;85.80;;;;;;5048296;28;20909;-75
2023/12/06 00:39:59;;;;;;;3.92;1.67;;;4.70;85.80;;;;;;5047092;28;20222;-76
2023/12/06 00:42:27;;;;;;;3.80;1.70;;;4.70;85.80;;;;;;5040770;28;20223;-75
2023/12/06 00:44:55;;;;;;;5.75;1.85;;;4.70;85.90;;;;;;5042603;28;20306;-76
2023/12/06 00:47:23;;;;;;;4.10;2.03;;;4.80;85.80;;;;;;5062302;28;20223;-76
2023/12/06 00:49:52;;;;;;;3.30;1.50;;;4.80;85.80;;;;;;5044573;28;20219;-76
2023/12/06 00:52:20;;;;;;;3.55;1.50;;;4.80;85.80;;;;;;5048695;28;20211;-76
2023/12/06 00:54:49;;;;;;;3.70;1.70;;;4.80;85.70;;;;;;5045403;28;20629;-76
2023/12/06 00:57:18;;;;;;;3.72;1.77;;;4.80;85.70;;;;;;5045028;28;20294;-76
2023/12/06 00:59:46;;;;;;;3.50;1.70;;;4.80;85.70;;;;;;5050611;28;20295;-76
2023/12/06 01:02:14;;;;;;;4.72;1.50;;;4.80;85.70;;;;;;5032258;28;20748;-75
2023/12/06 01:04:42;;;;;;;3.83;1.90;;;4.80;85.60;;;;;;5034080;28;20216;-75
2023/12/06 01:07:10;;;;;;;3.80;1.90;;;4.80;85.60;;;;;;5027495;28;20270;-76
2023/12/06 01:09:39;;;;;;;4.30;2.15;;;4.80;85.70;;;;;;5025921;28;20293;-77
2023/12/06 01:12:07;;;;;;;4.13;2.05;;;4.80;85.70;;;;;;5029173;28;20286;-77
2023/12/06 01:14:37;;;;;;;3.70;1.80;;;4.80;85.70;;;;;;5030531;28;20211;-77
2023/12/06 01:17:05;;;;;;;3.47;1.63;;;4.80;85.70;;;;;;5035310;28;20220;-77
2023/12/06 01:19:33;;;;;;;3.80;1.95;;;4.80;85.80;;;;;;5036327;28;20280;-77
2023/12/06 01:22:01;;;;;;;4.20;2.10;;;4.80;85.80;;;;;;5031203;28;20246;-76
2023/12/06 01:24:30;;;;;;;3.67;1.65;;;4.80;85.70;;;;;;5029671;28;20626;-77
2023/12/06 01:26:58;;;;;;;4.30;2.20;;;4.80;85.70;;;;;;5036039;28;20616;-77
2023/12/06 01:29:26;;;;;;;4.15;1.95;;;4.80;85.80;;;;;;5033545;28;20247;-77
2023/12/06 01:31:56;;;;;;;3.80;2.13;;;4.80;85.80;;;;;;5037297;28;20231;-77
2023/12/06 01:34:24;;;;;;;3.50;1.60;;;4.80;85.80;;;;;;5025618;28;20219;-77
2023/12/06 01:36:52;;;;;;;4.50;2.08;;;4.80;85.80;;;;;;5024706;28;20213;-77
2023/12/06 01:39:20;;;;;;;3.92;2.00;;;4.90;85.70;;;;;;5022502;28;20308;-77
2023/12/06 01:41:50;;;;;;;3.63;2.00;;;4.90;85.70;;;;;;5025531;28;20231;-77
2023/12/06 01:44:18;;;;;;;3.88;1.70;;;4.90;85.70;;;;;;5029051;28;20235;-77
2023/12/06 01:46:47;;;;;;;3.45;1.70;;;4.80;85.60;;;;;;5052376;28;20237;-77
2023/12/06 01:49:16;;;;;;;4.18;2.13;;;4.80;85.70;;;;;;5049698;28;20823;-77
2023/12/06 01:51:45;;;;;;;4.20;1.60;;;4.80;85.60;;;;;;5049346;28;20281;-75
2023/12/06 01:54:13;;;;;;;6.15;2.28;;;4.80;85.60;;;;;;5049864;28;20236;-75
2023/12/06 01:56:42;;;;;;;3.45;1.70;;;4.80;85.70;;;;;;5051596;28;20282;-75
2023/12/06 01:59:11;;;;;;;3.35;1.60;;;4.80;85.70;;;;;;5047250;28;20238;-75
2023/12/06 02:01:41;;;;;;;3.60;1.70;;;4.90;85.70;;;;;;5046149;28;20231;-75
2023/12/06 02:04:10;;;;;;;3.70;1.70;;;4.80;85.70;;;;;;5058922;28;20237;-75
2023/12/06 02:06:39;;;;;;;3.78;1.73;;;4.80;85.70;;;;;;5046234;28;20231;-75
2023/12/06 02:09:09;;;;;;;3.63;1.60;;;4.80;85.80;;;;;;5048893;28;20246;-75
2023/12/06 02:11:37;;;;;;;3.20;1.30;;;4.80;85.80;;;;;;5047067;28;20272;-75
2023/12/06 02:14:07;;;;;;;3.50;1.58;;;4.90;85.80;;;;;;5044765;28;20207;-76
2023/12/06 02:16:35;;;;;;;3.90;1.67;;;4.90;85.80;;;;;;5047076;28;20216;-76
2023/12/06 02:19:04;;;;;;;3.40;1.48;;;4.90;85.80;;;;;;5048061;28;20207;-75
2023/12/06 02:21:32;;;;;;;4.95;1.75;;;4.80;85.80;;;;;;5048068;28;20215;-76
2023/12/06 02:24:02;;;;;;;3.85;1.85;;;4.80;85.80;;;;;;5042583;28;20271;-76
2023/12/06 02:26:32;;;;;;;3.30;1.60;;;4.80;85.90;;;;;;5047930;28;20254;-76
2023/12/06 02:29:00;;;;;;;4.30;2.10;;;4.80;86.00;;;;;;5047987;28;20258;-76
2023/12/06 02:31:28;;;;;;;3.78;1.80;;;4.80;86.00;;;;;;5048758;28;20686;-76
2023/12/06 02:33:59;;;;;;;5.88;2.22;;;4.80;86.00;;;;;;5042727;28;20233;-75
2023/12/06 02:36:30;;;;;;;3.42;1.40;;;4.90;86.00;;;;;;5046463;28;20294;-75
2023/12/06 02:38:58;;;;;;;3.45;1.58;;;4.90;86.00;;;;;;5046867;28;20215;-75
2023/12/06 02:41:28;;;;;;;3.80;1.88;;;4.90;86.10;;;;;;5039672;28;20204;-75
2023/12/06 02:43:58;;;;;;;3.95;2.05;;;4.90;86.10;;;;;;5045271;28;20200;-76
2023/12/06 02:46:26;;;;;;;4.60;2.50;;;4.90;86.00;;;;;;5046978;28;20669;-76
2023/12/06 02:48:56;;;;;;;4.13;2.08;;;4.90;86.00;;;;;;5048631;28;20221;-75
2023/12/06 02:51:24;;;;;;;4.03;2.08;;;4.90;85.90;;;;;;5047336;28;20219;-75
2023/12/06 02:53:53;;;;;;;4.13;2.10;;;4.90;86.00;;;;;;5045546;28;20277;-75
2023/12/06 02:56:21;;;;;;;4.65;2.63;;;4.90;85.90;;;;;;5045322;28;20234;-75
2023/12/06 02:58:49;;;;;;;4.30;2.30;;;4.90;86.00;;;;;;5042678;28;20204;-75
2023/12/06 03:01:20;;;;;;;4.35;2.30;;;4.90;85.90;;;;;;5034158;28;20574;-75
2023/12/06 03:03:48;;;;;;;4.00;2.00;;;5.00;86.00;;;;;;5023013;28;20253;-76
2023/12/06 03:06:16;;;;;;;4.03;2.00;;;5.00;85.90;;;;;;5026978;28;20208;-76
2023/12/06 03:08:44;;;;;;;3.97;2.00;;;5.00;85.90;;;;;;5027419;28;20215;-75
2023/12/06 03:11:12;;;;;;;3.90;1.90;;;5.00;85.90;;;;;;5023386;28;20232;-76
2023/12/06 03:13:40;;;;;;;3.72;2.00;;;5.00;85.90;;;;;;5026496;28;20223;-77
2023/12/06 03:16:08;;;;;;;4.55;2.55;;;5.00;85.90;;;;;;5025375;28;20220;-74
2023/12/06 03:18:38;;;;;;;4.63;2.63;;;5.00;85.80;;;;;;5041063;28;20204;-76
2023/12/06 03:21:07;;;;;;;7.78;2.83;;;5.00;85.80;;;;;;5025139;28;20209;-76
2023/12/06 03:23:35;;;;;;;4.15;2.40;;;4.90;85.80;;;;;;5030622;28;20226;-75
2023/12/06 03:26:04;;;;;;;4.68;2.55;;;4.90;85.90;;;;;;5026191;28;20532;-75
2023/12/06 03:28:32;;;;;;;4.40;2.67;;;4.90;85.90;;;;;;5028591;28;20223;-76
2023/12/06 03:31:01;;;;;;;7.85;3.35;;;5.00;86.00;;;;;;5022661;28;20237;-75
2023/12/06 03:33:29;;;;;;;4.38;2.28;;;5.00;85.90;;;;;;5028436;28;20250;-76
2023/12/06 03:35:59;;;;;;;5.03;3.08;;;5.00;85.90;;;;;;5029586;28;20675;-76
2023/12/06 03:38:27;;;;;;;4.50;2.50;;;5.00;85.90;;;;;;5031593;28;20231;-76
2023/12/06 03:40:55;;;;;;;5.20;2.95;;;5.00;85.90;;;;;;5029500;28;20197;-76
2023/12/06 03:43:23;;;;;;;5.30;2.58;;;5.00;85.90;;;;;;5029007;28;20209;-76
2023/12/06 03:45:51;;;;;;;5.18;2.97;;;5.00;85.90;;;;;;5029732;28;20200;-76
2023/12/06 03:48:19;;;;;;;4.78;3.05;;;5.00;85.90;;;;;;5033581;28;20433;-76
2023/12/06 03:50:47;;;;;;;5.22;3.30;;;5.00;85.80;;;;;;5031223;28;20227;-75
2023/12/06 03:53:17;;;;;;;6.53;4.20;;;5.00;85.90;;;;;;5032877;28;20211;-76
2023/12/06 03:55:45;;;;;;;6.43;4.18;;;4.90;85.90;;;;;;5032221;28;20541;-76
2023/12/06 03:58:12;;;;;;;6.25;4.13;;;4.90;86.00;;;;;;5023952;28;20236;-76
2023/12/06 04:00:41;;;;;;;6.32;3.90;;;4.90;86.00;;;;;;5029971;28;20340;-75
2023/12/06 04:03:09;;;;;;;7.43;4.28;;;5.00;86.10;;;;;;5033394;28;20215;-75
2023/12/06 04:05:37;;;;;;;7.32;4.72;;;5.00;86.10;;;;;;5035111;28;20212;-77
2023/12/06 04:08:05;;;;;;;7.03;4.63;;;5.00;86.20;;;;;;5030847;28;20323;-75
2023/12/06 04:10:35;;;;;;;8.20;4.57;;;5.00;86.20;;;;;;5028321;28;20224;-76
2023/12/06 04:13:04;;;;;;;6.88;4.28;;;5.00;86.20;;;;;;5025268;28;20201;-76
2023/12/06 04:15:32;;;;;;;6.93;4.70;;;5.00;86.30;;;;;;5029846;28;20734;-76
2023/12/06 04:18:00;;;;;;;7.93;4.65;;;5.00;86.30;;;;;;5037661;28;20208;-76
2023/12/06 04:20:28;;;;;;;7.10;4.72;;;5.00;86.30;;;;;;5032823;28;20322;-76
2023/12/06 04:22:56;;;;;;;8.70;5.50;;;5.00;86.40;;;;;;5032177;28;20226;-76
2023/12/06 04:25:24;;;;;;;8.07;5.35;;;5.00;86.40;;;;;;5031068;28;20207;-76
2023/12/06 04:27:54;;;;;;;8.50;5.45;;;5.00;86.50;;;;;;5022906;28;20316;-76
2023/12/06 04:30:22;;;;;;;9.32;5.70;;;5.10;86.50;;;;;;5029828;28;20283;-76
2023/12/06 04:32:50;;;;;;;7.72;5.15;;;5.10;86.50;;;;;;5029221;28;20234;-76
2023/12/06 04:35:18;;;;;;;8.55;5.57;;;5.10;86.50;;;;;;5031823;28;20232;-75
2023/12/06 04:37:46;;;;;;;10.38;6.00;;;5.10;86.50;;;;;;5030520;28;20209;-75
2023/12/06 04:40:16;;;;;;;9.77;5.40;;;5.10;86.50;;;;;;5031536;28;20201;-76
2023/12/06 04:42:44;;;;;;;13.73;6.60;;;5.10;86.50;;;;;;5030544;28;20608;-76
2023/12/06 04:45:13;;;;;;;10.38;5.38;;;5.10;86.40;;;;;;5026536;28;20282;-77
2023/12/06 04:47:42;;;;;;;8.15;4.90;;;5.10;86.40;;;;;;5031208;28;20220;-76
2023/12/06 04:50:10;;;;;;;7.60;5.18;;;5.10;86.40;;;;;;5027277;28;20308;-76
2023/12/06 04:52:38;;;;;;;7.95;5.20;;;5.10;86.40;;;;;;5036376;28;20515;-75
2023/12/06 04:55:07;;;;;;;8.95;5.15;;;5.10;86.40;;;;;;5029995;28;20200;-75
2023/12/06 04:57:35;;;;;;;8.43;5.60;;;5.10;86.30;;;;;;5030941;28;20230;-76
2023/12/06 05:00:05;;;;;;;8.82;5.72;;;5.10;86.30;;;;;;5030321;28;20220;-77
2023/12/06 05:02:34;;;;;;;10.07;5.93;;;5.10;86.30;;;;;;5031816;28;20259;-76
2023/12/06 05:05:04;;;;;;;8.43;5.72;;;5.10;86.20;;;;;;5029280;28;20197;-76
2023/12/06 05:07:32;;;;;;;11.13;5.78;;;5.10;86.20;;;;;;5029569;28;20215;-76
2023/12/06 05:10:00;;;;;;;7.55;5.35;;;5.10;86.30;;;;;;5029099;28;20218;-76
2023/12/06 05:12:28;;;;;;;8.95;5.70;;;5.10;86.30;;;;;;5028991;28;20219;-76
2023/12/06 05:14:59;;;;;;;8.30;5.30;;;5.10;86.30;;;;;;5028845;28;20220;-76
2023/12/06 05:17:27;;;;;;;9.35;5.78;;;5.10;86.20;;;;;;5026723;28;20663;-76
2023/12/06 05:19:56;;;;;;;8.65;5.38;;;5.10;86.20;;;;;;5020043;28;20312;-76
2023/12/06 05:22:25;;;;;;;8.43;5.32;;;5.10;86.20;;;;;;5028373;28;20197;-76
2023/12/06 05:24:53;;;;;;;8.50;5.60;;;5.10;86.20;;;;;;5032044;28;20192;-76
2023/12/06 05:27:21;;;;;;;10.23;5.65;;;5.10;86.20;;;;;;5027944;28;20209;-76
2023/12/06 05:29:50;;;;;;;10.43;6.15;;;5.10;86.10;;;;;;5029165;28;20233;-76
2023/12/06 05:32:21;;;;;;;11.30;6.97;;;5.10;86.20;;;;;;5027176;28;20259;-76
2023/12/06 05:34:49;;;;;;;11.50;6.60;;;5.10;86.30;;;;;;5029639;28;20231;-75
2023/12/06 05:37:19;;;;;;;10.25;6.57;;;5.10;86.40;;;;;;5026543;28;20271;-76
2023/12/06 05:39:48;;;;;;;10.77;7.03;;;5.10;86.40;;;;;;5027350;28;20214;-76
2023/12/06 05:42:17;;;;;;;10.50;6.60;;;5.10;86.30;;;;;;5028188;28;20258;-76
2023/12/06 05:44:45;;;;;;;12.30;6.13;;;5.10;86.30;;;;;;5048065;28;20277;-76
2023/12/06 05:47:13;;;;;;;10.30;6.95;;;5.10;86.40;;;;;;5028568;28;20212;-76
2023/12/06 05:49:41;;;;;;;13.20;7.80;;;5.10;86.30;;;;;;5030392;28;20215;-76
2023/12/06 05:52:09;;;;;;;11.65;6.85;;;5.10;86.30;;;;;;5026268;28;21674;-75
2023/12/06 05:54:39;;;;;;;10.75;7.05;;;5.10;86.40;;;;;;5029014;28;20259;-76
2023/12/06 05:57:07;;;;;;;11.20;7.57;;;5.10;86.40;;;;;;5030943;28;20205;-76
2023/12/06 05:59:35;;;;;;;12.98;7.10;;;5.10;86.40;;;;;;5027410;28;20216;-76
2023/12/06 06:02:03;;;;;;;12.20;7.03;;;5.10;86.50;;;;;;5043603;28;20241;-75
2023/12/06 06:04:32;;;;;;;9.95;7.20;;;5.10;86.40;;;;;;5047804;28;20242;-75
2023/12/06 06:07:00;;;;;;;10.68;6.82;;;5.10;86.40;;;;;;5053094;28;20219;-75
2023/12/06 06:09:28;;;;;;;10.80;7.00;;;5.10;86.50;;;;;;5047162;28;20699;-75
2023/12/06 06:11:57;;;;;;;11.57;8.10;;;5.10;86.60;;;;;;5048059;28;20314;-75
2023/12/06 06:14:26;;;;;;;10.80;6.60;;;5.10;86.60;;;;;;5049686;28;20203;-75
2023/12/06 06:16:54;;;;;;;11.40;7.10;;;5.10;86.60;;;;;;5050898;28;20279;-76
2023/12/06 06:19:22;;;;;;;10.77;7.13;;;5.20;86.70;;;;;;5049547;28;20222;-75
2023/12/06 06:21:51;;;;;;;10.05;7.07;;;5.20;86.60;;;;;;5047446;28;20196;-75
2023/12/06 06:24:19;;;;;;;12.52;7.90;;;5.20;86.60;;;;;;5050634;28;20551;-75
2023/12/06 06:26:47;;;;;;;10.90;7.32;;;5.20;86.60;;;;;;5049895;28;20204;-75
2023/12/06 06:29:16;;;;;;;11.85;7.85;;;5.20;86.70;;;;;;5047286;28;20207;-75
2023/12/06 06:31:44;;;;;;;10.75;7.28;;;5.20;86.60;;;;;;5038804;28;20224;-76
2023/12/06 06:34:13;;;;;;;12.00;7.35;;;5.20;86.50;;;;;;5029031;28;20208;-75
2023/12/06 06:36:42;;;;;;;10.00;6.75;;;5.20;86.60;;;;;;5034189;28;20552;-75
2023/12/06 06:39:12;;;;;;;10.55;7.03;;;5.20;86.60;;;;;;5028838;28;20223;-75
2023/12/06 06:41:40;;;;;;;11.48;7.10;;;5.20;86.60;;;;;;5031514;28;20197;-75
2023/12/06 06:44:08;;;;;;;12.82;7.60;;;5.20;86.60;;;;;;5026998;28;20638;-75
2023/12/06 06:46:37;;;;;;;12.30;7.32;;;5.30;86.60;;;;;;5029790;28;20541;-75
2023/12/06 06:49:05;;;;;;;10.40;7.22;;;5.30;86.50;;;;;;5027190;28;20215;-75
2023/12/06 06:51:35;;;;;;;10.98;6.90;;;5.20;86.50;;;;;;5029847;28;20566;-76
2023/12/06 06:54:03;;;;;;;9.80;6.72;;;5.30;86.50;;;;;;5026881;28;20200;-75
2023/12/06 06:56:31;;;;;;;13.48;8.02;;;5.30;86.50;;;;;;5027868;28;20212;-75
2023/12/06 06:58:59;;;;;;;12.07;7.50;;;5.30;86.50;;;;;;5034100;28;20537;-75
2023/12/06 07:01:27;;;;;;;13.48;8.00;;;5.20;86.40;;;;;;5037900;28;20251;-75
2023/12/06 07:03:58;;;;;;;11.50;7.60;;;5.20;86.50;;;;;;5045922;28;20223;-75
2023/12/06 07:06:26;;;;;;;18.55;9.68;;;5.30;86.50;;;;;;5048105;28;20672;-75
2023/12/06 07:08:55;;;;;;;13.27;8.10;;;5.20;86.50;;;;;;5047628;28;20794;-76
2023/12/06 07:11:23;;;;;;;18.08;10.95;;;5.20;86.50;;;;;;5045324;28;20228;-75
2023/12/06 07:13:51;;;;;;;15.15;9.93;;;5.20;86.50;;;;;;5046488;28;20605;-75
2023/12/06 07:16:19;;;;;;;15.90;10.63;;;5.20;86.50;;;;;;5042452;28;20214;-75
2023/12/06 07:18:49;;;;;;;27.52;14.65;;;5.20;86.50;;;;;;5046200;28;20231;-75
2023/12/06 07:21:18;;;;;;;24.67;13.77;;;5.20;86.50;;;;;;5043027;28;20265;-75
2023/12/06 07:23:47;;;;;;;23.08;12.90;;;5.20;86.50;;;;;;5044213;28;20204;-75
2023/12/06 07:26:15;;;;;;;17.75;11.70;;;5.20;86.50;;;;;;5045660;28;20272;-75
2023/12/06 07:28:43;;;;;;;17.05;11.00;;;5.30;86.60;;;;;;5043042;28;20572;-75
2023/12/06 07:31:11;;;;;;;20.85;12.40;;;5.30;86.60;;;;;;5036665;28;20237;-75
2023/12/06 07:33:40;;;;;;;15.50;10.15;;;5.30;86.60;;;;;;5027186;28;20205;-75
2023/12/06 07:36:10;;;;;;;15.13;9.05;;;5.30;86.50;;;;;;5027573;28;20659;-75
2023/12/06 07:38:39;;;;;;;14.10;8.40;;;5.30;86.50;;;;;;5030245;28;20235;-75
2023/12/06 07:41:06;;;;;;;11.20;7.18;;;5.30;86.50;;;;;;5026289;28;20213;-75
2023/12/06 07:43:34;;;;;;;12.55;7.95;;;5.30;86.50;;;;;;5028343;28;20201;-75
2023/12/06 07:46:04;;;;;;;11.18;7.85;;;5.20;86.50;;;;;;5027040;28;20205;-77
2023/12/06 07:48:33;;;;;;;19.40;7.55;;;5.30;86.50;;;;;;5028965;28;20258;-76
2023/12/06 07:51:01;;;;;;;12.20;6.90;;;5.20;86.50;;;;;;5032845;28;20208;-76
2023/12/06 07:53:29;;;;;;;10.25;6.25;;;5.20;86.50;;;;;;5026013;28;20804;-75
2023/12/06 07:55:59;;;;;;;12.85;7.78;;;5.20;86.50;;;;;;5027680;28;20223;-75
2023/12/06 07:58:30;;;;;;;11.82;7.32;;;5.20;86.40;;;;;;5030046;28;20208;-76
2023/12/06 08:00:59;;;;;;;11.48;7.07;;;5.10;86.50;;;;;;5024627;28;20283;-76
2023/12/06 08:03:30;;;;;;;14.25;7.30;;;5.20;86.60;;;;;;5027253;28;20293;-76
2023/12/06 08:05:59;;;;;;;11.85;7.63;;;5.20;86.60;;;;;;5030251;28;20192;-75
2023/12/06 08:08:27;;;;;;;12.23;7.85;;;5.20;86.60;;;;;;5027668;28;20300;-75
2023/12/06 08:10:55;;;;;;;12.50;8.10;;;5.20;86.60;;;;;;5029888;28;20196;-75
2023/12/06 08:13:25;;;;;;;12.80;7.63;;;5.20;86.60;;;;;;5030942;28;20236;-76
2023/12/06 08:15:53;;;;;;;12.68;7.50;;;5.20;86.50;;;;;;5029638;28;20291;-76
2023/12/06 08:18:21;;;;;;;11.15;7.03;;;5.20;86.60;;;;;;5031810;28;20275;-76
2023/12/06 08:20:49;;;;;;;11.05;7.20;;;5.20;86.60;;;;;;5033416;28;20266;-76
2023/12/06 08:23:17;;;;;;;13.50;7.07;;;5.20;86.60;;;;;;5030338;28;20221;-76
2023/12/06 08:25:45;;;;;;;10.45;6.75;;;5.20;86.70;;;;;;5031909;28;20201;-75
2023/12/06 08:28:14;;;;;;;13.38;6.80;;;5.20;86.80;;;;;;5032049;28;20534;-75
2023/12/06 08:30:44;;;;;;;12.68;7.20;;;5.20;86.80;;;;;;5035714;28;20253;-76
2023/12/06 08:33:13;;;;;;;10.70;6.82;;;5.20;86.80;;;;;;5048137;28;20219;-76
2023/12/06 08:35:42;;;;;;;11.52;7.22;;;5.20;86.80;;;;;;5039281;28;20217;-76
2023/12/06 08:38:10;;;;;;;11.25;7.75;;;5.20;86.80;;;;;;5054734;28;20222;-75
2023/12/06 08:40:39;;;;;;;10.43;6.88;;;5.20;86.80;;;;;;5044734;28;20230;-75
2023/12/06 08:43:06;;;;;;;12.63;7.05;;;5.20;86.80;;;;;;5048987;28;20208;-76
2023/12/06 08:45:34;;;;;;;12.10;8.00;;;5.20;86.90;;;;;;5054175;28;20208;-76
2023/12/06 08:48:04;;;;;;;13.98;8.00;;;5.20;86.80;;;;;;5052191;28;20212;-75
2023/12/06 08:50:32;;;;;;;13.18;7.70;;;5.20;86.80;;;;;;5051450;28;20291;-76
2023/12/06 08:53:00;;;;;;;12.40;7.28;;;5.20;86.90;;;;;;5048174;28;20319;-76
2023/12/06 08:55:28;;;;;;;11.40;7.72;;;5.20;86.90;;;;;;5050235;28;20365;-75
2023/12/06 08:57:56;;;;;;;13.82;8.20;;;5.20;86.90;;;;;;5049526;28;20223;-76
2023/12/06 09:00:24;;;;;;;19.52;8.60;;;5.20;86.90;;;;;;5055105;28;20247;-75
2023/12/06 09:02:53;;;;;;;17.75;10.40;;;5.20;86.90;;;;;;5051181;28;20203;-76
2023/12/06 09:05:22;;;;;;;19.67;9.60;;;5.20;86.90;;;;;;5050190;28;20204;-76
2023/12/06 09:07:50;;;;;;;14.90;9.65;;;5.20;86.90;;;;;;5051164;28;20200;-76
2023/12/06 09:10:18;;;;;;;23.85;10.15;;;5.20;87.00;;;;;;5051606;28;20226;-75
2023/12/06 09:12:46;;;;;;;16.92;9.32;;;5.10;87.00;;;;;;5047420;28;20223;-76
2023/12/06 09:15:16;;;;;;;19.13;10.88;;;5.10;87.10;;;;;;5049835;28;20222;-76
2023/12/06 09:17:44;;;;;;;17.50;10.35;;;5.00;87.20;;;;;;5049478;28;20207;-76
2023/12/06 09:20:12;;;;;;;15.82;9.52;;;5.00;87.30;;;;;;5038487;28;20216;-76
2023/12/06 09:22:42;;;;;;;19.48;10.88;;;5.00;87.50;;;;;;5049219;28;20218;-75
2023/12/06 09:25:10;;;;;;;22.08;11.65;;;5.00;87.50;;;;;;5049192;28;20203;-75
2023/12/06 09:27:38;;;;;;;16.38;10.75;;;5.00;87.60;;;;;;5051547;28;20263;-76
2023/12/06 09:30:09;;;;;;;18.60;10.90;;;5.00;87.50;;;;;;5048360;28;20644;-77
2023/12/06 09:32:36;;;;;;;18.33;10.65;;;5.10;87.50;;;;;;5047191;28;20656;-76
2023/12/06 09:35:08;;;;;;;22.08;11.57;;;5.10;87.40;;;;;;5064587;28;20220;-76
2023/12/06 09:37:36;;;;;;;17.88;10.77;;;5.10;87.40;;;;;;5041667;28;20218;-76
2023/12/06 09:40:06;;;;;;;18.00;10.40;;;5.10;87.40;;;;;;5050085;28;20240;-76
2023/12/06 09:42:37;;;;;;;15.18;9.63;;;5.10;87.40;;;;;;5050120;28;20199;-76
2023/12/06 09:45:07;;;;;;;12.10;7.80;;;5.10;87.40;;;;;;5047167;28;20632;-76
2023/12/06 09:47:36;;;;;;;11.70;6.88;;;5.20;87.30;;;;;;5059730;28;20218;-76
2023/12/06 09:50:05;;;;;;;10.65;6.97;;;5.20;87.20;;;;;;5045888;28;20197;-76
2023/12/06 09:52:33;;;;;;;10.70;6.40;;;5.10;87.10;;;;;;5045548;28;20205;-76
2023/12/06 09:55:01;;;;;;;15.23;6.28;;;5.10;87.10;;;;;;5045242;28;20208;-76
2023/12/06 09:57:31;;;;;;;8.75;5.80;;;5.10;87.10;;;;;;5048230;28;20212;-76
2023/12/06 09:59:59;;;;;;;9.50;5.72;;;5.10;87.20;;;;;;5049377;28;20220;-76
2023/12/06 10:02:27;;;;;;;9.27;5.97;;;5.10;87.10;;;;;;5043482;28;20711;-76
2023/12/06 10:05:04;;;;;;;11.60;7.45;;;5.00;87.10;;;;;;5045726;28;20660;-76
2023/12/06 10:07:33;;;;;;;12.77;8.40;;;5.00;87.20;;;;;;5040330;28;20578;-76
2023/12/06 10:10:02;;;;;;;13.15;7.88;;;5.00;87.10;;;;;;5058014;28;20274;-76
2023/12/06 10:12:31;;;;;;;12.32;8.13;;;5.00;87.00;;;;;;5044601;28;20203;-76
2023/12/06 10:15:00;;;;;;;12.70;8.43;;;5.00;87.10;;;;;;5047339;28;20325;-75
2023/12/06 10:17:28;;;;;;;14.52;9.68;;;4.90;87.00;;;;;;5043961;28;20231;-76
2023/12/06 10:19:57;;;;;;;13.55;9.45;;;4.90;86.90;;;;;;5046675;28;20226;-76
2023/12/06 10:22:26;;;;;;;16.20;10.15;;;4.80;86.90;;;;;;5045915;28;20222;-76
2023/12/06 10:24:56;;;;;;;16.83;11.82;;;4.80;86.90;;;;;;5039053;28;20306;-76
2023/12/06 10:27:24;;;;;;;18.08;11.70;;;4.80;87.00;;;;;;5045564;28;20210;-76
2023/12/06 10:29:55;;;;;;;17.30;11.88;;;4.70;86.90;;;;;;5046877;28;20295;-76
2023/12/06 10:32:23;;;;;;;18.70;11.70;;;4.70;87.00;;;;;;5042300;28;20253;-76
2023/12/06 10:34:51;;;;;;;18.38;12.35;;;4.70;87.00;;;;;;5047725;28;20235;-76
2023/12/06 10:37:21;;;;;;;18.90;13.02;;;4.70;86.90;;;;;;5050020;28;20613;-77
2023/12/06 10:39:51;;;;;;;18.75;12.73;;;4.70;86.90;;;;;;5044970;28;20249;-76
2023/12/06 10:42:24;;;;;;;18.73;13.23;;;4.70;86.70;;;;;;5045303;28;20557;-77
2023/12/06 10:44:56;;;;;;;20.42;13.73;;;4.70;86.70;;;;;;5046224;28;20200;-76
2023/12/06 10:47:25;;;;;;;19.70;13.68;;;4.70;86.70;;;;;;5047651;28;20210;-76
2023/12/06 10:49:56;;;;;;;21.90;13.95;;;4.60;86.50;;;;;;5055238;28;20204;-76
2023/12/06 10:52:24;;;;;;;21.33;13.90;;;4.60;86.60;;;;;;5045009;28;20258;-76
2023/12/06 10:54:55;;;;;;;24.35;14.52;;;4.50;86.60;;;;;;5047530;28;20672;-76
2023/12/06 10:57:26;;;;;;;25.23;15.60;;;4.50;86.60;;;;;;5054244;28;20214;-76
2023/12/06 10:59:58;;;;;;;26.00;16.70;;;4.50;86.70;;;;;;5045536;28;20200;-76
2023/12/06 11:02:28;;;;;;;21.73;14.48;;;4.60;86.60;;;;;;5027674;28;20235;-76
2023/12/06 11:05:05;;;;;;;23.40;15.50;;;4.50;86.70;;;;;;5027686;28;20216;-76
2023/12/06 11:08:10;;;;;;;23.73;14.80;;;4.60;86.50;;;;;;5021212;28;20311;-76
2023/12/06 11:10:48;;;;;;;24.65;15.82;;;4.60;86.60;;;;;;5027941;28;20204;-76
2023/12/06 11:13:30;;;;;;;21.40;14.63;;;4.60;86.60;;;;;;5036949;28;20204;-76
2023/12/06 11:16:08;;;;;;;21.73;14.85;;;4.60;86.60;;;;;;5027619;28;20934;-76
2023/12/06 11:18:44;;;;;;;22.20;14.07;;;4.60;86.50;;;;;;5022315;28;20783;-77
2023/12/06 11:21:13;;;;;;;24.77;16.15;;;4.60;86.50;;;;;;5021677;28;20317;-77
2023/12/06 11:23:42;;;;;;;23.00;16.20;;;4.60;86.50;;;;;;5026373;28;20205;-77
2023/12/06 11:26:11;;;;;;;27.63;17.35;;;4.60;86.40;;;;;;5031749;28;20599;-76
2023/12/06 11:28:41;;;;;;;22.25;14.90;;;4.60;86.40;;;;;;5023752;28;20558;-76
2023/12/06 11:31:14;;;;;;;22.50;15.25;;;4.60;86.50;;;;;;5033914;28;20247;-76
2023/12/06 11:33:53;;;;;;;24.85;16.65;;;4.60;86.40;;;;;;5046712;28;20208;-76
2023/12/06 11:36:24;;;;;;;25.02;16.67;;;4.60;86.40;;;;;;5046376;28;20211;-76
2023/12/06 11:38:53;;;;;;;25.25;15.63;;;4.60;86.40;;;;;;5052223;28;20233;-76
2023/12/06 11:41:22;;;;;;;23.65;16.58;;;4.70;86.30;;;;;;5047300;28;20211;-76
2023/12/06 11:43:51;;;;;;;25.77;16.83;;;4.70;86.30;;;;;;5047081;28;20205;-76
2023/12/06 11:46:23;;;;;;;23.83;16.30;;;4.60;86.30;;;;;;5045992;28;20218;-76
2023/12/06 11:48:51;;;;;;;24.92;16.25;;;4.70;86.30;;;;;;5053148;28;20235;-76
2023/12/06 11:51:20;;;;;;;29.40;18.52;;;4.70;86.30;;;;;;5049399;28;20652;-76
2023/12/06 11:53:50;;;;;;;23.38;16.02;;;4.70;86.30;;;;;;5051705;28;20231;-76
2023/12/06 11:56:22;;;;;;;24.10;15.27;;;4.70;86.10;;;;;;5039707;28;20327;-76
2023/12/06 11:58:50;;;;;;;25.45;17.30;;;4.70;86.10;;;;;;5048693;28;20203;-76
2023/12/06 12:01:21;;;;;;;26.20;17.05;;;4.70;86.10;;;;;;5037818;28;20316;-76
2023/12/06 12:03:50;;;;;;;28.02;17.35;;;4.70;86.00;;;;;;5030251;28;20212;-76
2023/12/06 12:06:19;;;;;;;25.67;17.30;;;4.70;85.90;;;;;;5028364;28;20220;-76
2023/12/06 12:08:47;;;;;;;22.52;16.10;;;4.70;86.00;;;;;;5029670;28;20211;-76
2023/12/06 12:11:15;;;;;;;26.58;17.13;;;4.70;85.90;;;;;;5027150;28;20208;-76
2023/12/06 12:13:44;;;;;;;27.40;18.00;;;4.70;85.90;;;;;;5028299;28;20830;-76
2023/12/06 12:16:15;;;;;;;27.23;18.35;;;4.60;85.80;;;;;;5029974;28;20696;-76
2023/12/06 12:18:45;;;;;;;27.27;17.33;;;4.60;85.90;;;;;;5022843;28;20236;-78
2023/12/06 12:21:18;;;;;;;25.08;16.27;;;4.60;85.90;;;;;;5027873;28;20208;-76
2023/12/06 12:23:47;;;;;;;25.05;16.55;;;4.60;85.90;;;;;;5026038;28;20216;-76
2023/12/06 12:26:15;;;;;;;26.05;17.60;;;4.60;85.80;;;;;;5026587;28;20526;-76
2023/12/06 12:28:44;;;;;;;24.65;16.63;;;4.60;85.80;;;;;;5029356;28;20678;-76
2023/12/06 12:31:18;;;;;;;28.27;17.60;;;4.60;85.80;;;;;;5041684;28;20236;-76
2023/12/06 12:33:47;;;;;;;26.77;17.33;;;4.60;85.80;;;;;;5030349;28;20553;-76
2023/12/06 12:36:24;;;;;;;26.48;17.65;;;4.60;85.80;;;;;;5044629;28;20290;-76
2023/12/06 12:38:57;;;;;;;27.02;15.98;;;4.60;85.80;;;;;;5028981;28;20644;-76
2023/12/06 12:41:25;;;;;;;23.73;16.30;;;4.60;85.70;;;;;;5028434;28;20204;-76
2023/12/06 12:43:54;;;;;;;25.10;16.42;;;4.70;85.80;;;;;;5029004;28;20215;-76
2023/12/06 12:46:22;;;;;;;24.63;15.15;;;4.70;85.80;;;;;;5029854;28;20227;-76
2023/12/06 12:48:52;;;;;;;23.80;15.93;;;4.70;85.80;;;;;;5032041;28;20208;-76
2023/12/06 12:51:21;;;;;;;24.15;16.17;;;4.70;85.70;;;;;;5028662;28;20201;-76
2023/12/06 12:53:48;;;;;;;23.30;15.50;;;4.70;85.70;;;;;;5029634;28;20213;-76
2023/12/06 12:56:18;;;;;;;22.30;15.68;;;4.70;85.70;;;;;;5029817;28;20755;-76